Time;durP1;ratioP1;P1;durP2;ratioP2;P2;SDS_P1;SDS_P2;PMS_P1;PMS_P2;Temp;Humidity;BMP_temperature;BMP_pressure;BME280_temperature;BME280_humidity;BME280_pressure;Samples;Min_cycle;Max_cycle;Signal;HPM_P1;HPM_P2
2024/01/17 00:00:13;;;;;;;6.78;2.97;;;;;;;;;;4951347;28;20059;-68
2024/01/17 00:02:40;;;;;;;8.18;3.10;;;;;;;;;;4964824;28;20102;-68
2024/01/17 00:05:10;;;;;;;5.70;2.78;;;;;;;;;;4968578;28;20438;-68
2024/01/17 00:07:37;;;;;;;11.38;3.30;;;;;;;;;;4969609;28;20058;-68
2024/01/17 00:10:06;;;;;;;10.05;3.08;;;;;;;;;;4942422;28;20091;-68
2024/01/17 00:12:33;;;;;;;9.07;3.58;;;;;;;;;;4961980;28;20054;-68
2024/01/17 00:15:01;;;;;;;8.13;3.00;;;;;;;;;;4964658;28;20070;-68
2024/01/17 00:17:28;;;;;;;6.40;2.75;;;;;;;;;;4966960;28;20050;-68
2024/01/17 00:19:55;;;;;;;6.32;2.70;;;;;;;;;;4968689;28;20051;-68
2024/01/17 00:22:22;;;;;;;7.03;2.83;;;;;;;;;;4955061;28;20450;-68
2024/01/17 00:24:51;;;;;;;8.10;2.97;;;;;;;;;;4959984;28;20061;-68
2024/01/17 00:27:23;;;;;;;11.23;3.38;;;;;;;;;;4967285;28;20451;-68
2024/01/17 00:29:56;;;;;;;9.77;3.80;;;;;;;;;;4966458;28;20046;-68
2024/01/17 00:32:24;;;;;;;9.82;3.92;;;;;;;;;;4964796;28;20463;-68
2024/01/17 00:34:53;;;;;;;8.50;3.08;;;;;;;;;;4958897;28;20047;-68
2024/01/17 00:37:20;;;;;;;8.40;3.55;;;;;;;;;;4967060;28;20150;-68
2024/01/17 00:39:48;;;;;;;11.57;3.63;;;;;;;;;;4965859;28;20043;-68
2024/01/17 00:42:16;;;;;;;12.60;4.03;;;;;;;;;;4944876;28;20137;-68
2024/01/17 00:44:45;;;;;;;8.63;3.90;;;;;;;;;;4961319;28;20046;-69
2024/01/17 00:47:12;;;;;;;9.40;3.53;;;;;;;;;;4962776;28;20062;-68
2024/01/17 00:49:39;;;;;;;11.95;4.22;;;;;;;;;;4962982;28;20058;-68
2024/01/17 00:52:07;;;;;;;12.98;3.80;;;;;;;;;;4963754;28;20055;-68
2024/01/17 00:54:34;;;;;;;7.97;3.33;;;;;;;;;;4967684;28;20054;-67
2024/01/17 00:57:01;;;;;;;10.75;3.53;;;;;;;;;;4967874;28;20059;-67
2024/01/17 00:59:28;;;;;;;9.13;3.92;;;;;;;;;;4957435;28;20458;-68
2024/01/17 01:01:57;;;;;;;6.40;3.35;;;;;;;;;;4967516;28;20149;-67
2024/01/17 01:04:24;;;;;;;9.07;3.50;;;;;;;;;;4963109;28;20046;-67
2024/01/17 01:06:52;;;;;;;10.63;4.13;;;;;;;;;;4966856;28;20059;-68
2024/01/17 01:09:19;;;;;;;7.38;3.17;;;;;;;;;;4968939;28;20051;-68
2024/01/17 01:11:46;;;;;;;18.02;3.97;;;;;;;;;;4946230;28;20054;-68
2024/01/17 01:14:14;;;;;;;9.07;4.40;;;;;;;;;;4967350;28;20053;-67
2024/01/17 01:16:42;;;;;;;12.20;4.07;;;;;;;;;;4963623;28;20046;-67
2024/01/17 01:19:11;;;;;;;7.95;3.88;;;;;;;;;;4968512;28;20803;-68
2024/01/17 01:21:38;;;;;;;11.18;3.95;;;;;;;;;;4963534;28;20059;-68
2024/01/17 01:24:05;;;;;;;9.13;3.92;;;;;;;;;;4964512;28;20051;-68
2024/01/17 01:26:32;;;;;;;15.48;4.68;;;;;;;;;;4950062;28;20074;-68
2024/01/17 01:29:00;;;;;;;13.75;4.35;;;;;;;;;;4963823;28;20047;-68
2024/01/17 01:31:27;;;;;;;10.68;4.88;;;;;;;;;;4964989;28;20057;-69
2024/01/17 01:33:54;;;;;;;12.35;3.88;;;;;;;;;;4965272;28;20055;-68
2024/01/17 01:36:23;;;;;;;12.05;4.70;;;;;;;;;;4958060;28;20051;-68
2024/01/17 01:38:50;;;;;;;16.40;4.65;;;;;;;;;;4957245;28;20054;-68
2024/01/17 01:41:17;;;;;;;9.07;4.18;;;;;;;;;;4969484;28;20078;-68
2024/01/17 01:43:45;;;;;;;8.68;4.20;;;;;;;;;;4962025;28;20055;-68
2024/01/17 01:46:17;;;;;;;11.38;4.32;;;;;;;;;;4968376;28;20054;-68
2024/01/17 01:48:45;;;;;;;8.13;4.82;;;;;;;;;;4967082;28;20055;-68
2024/01/17 01:51:12;;;;;;;9.82;3.78;;;;;;;;;;4968625;28;20486;-68
2024/01/17 01:53:43;;;;;;;13.52;4.55;;;;;;;;;;4961576;28;20059;-69
2024/01/17 01:56:12;;;;;;;14.02;4.30;;;;;;;;;;4962953;28;20168;-68
2024/01/17 01:58:40;;;;;;;10.02;4.30;;;;;;;;;;4969167;28;20134;-68
2024/01/17 02:01:08;;;;;;;12.25;4.57;;;;;;;;;;4968121;28;20058;-68
2024/01/17 02:03:35;;;;;;;14.38;4.80;;;;;;;;;;4964819;28;20054;-68
2024/01/17 02:06:03;;;;;;;13.43;5.15;;;;;;;;;;4968556;28;20081;-68
2024/01/17 02:08:30;;;;;;;14.75;4.60;;;;;;;;;;4968107;28;20096;-68
2024/01/17 02:10:59;;;;;;;10.68;4.18;;;;;;;;;;4966594;28;20062;-68
2024/01/17 02:13:27;;;;;;;10.43;4.70;;;;;;;;;;4968433;28;20055;-67
2024/01/17 02:15:54;;;;;;;11.63;4.82;;;;;;;;;;4963703;28;20051;-68
2024/01/17 02:18:22;;;;;;;12.90;5.22;;;;;;;;;;4965003;28;20165;-68
2024/01/17 02:20:49;;;;;;;8.48;4.82;;;;;;;;;;4967310;28;20057;-68
2024/01/17 02:23:24;;;;;;;11.45;5.10;;;;;;;;;;4971139;28;20055;-68
2024/01/17 02:25:52;;;;;;;12.05;5.25;;;;;;;;;;4948010;28;20053;-68
2024/01/17 02:28:20;;;;;;;12.75;5.00;;;;;;;;;;4964916;28;20520;-68
2024/01/17 02:30:47;;;;;;;13.93;4.53;;;;;;;;;;4969546;28;20520;-68
2024/01/17 02:33:15;;;;;;;11.70;5.28;;;;;;;;;;4970778;28;20071;-68
2024/01/17 02:35:42;;;;;;;10.80;4.68;;;;;;;;;;4968914;28;20477;-68
2024/01/17 02:38:09;;;;;;;10.68;5.47;;;;;;;;;;4970447;28;20062;-68
2024/01/17 02:40:37;;;;;;;10.80;4.53;;;;;;;;;;4967313;28;20573;-68
2024/01/17 02:43:06;;;;;;;11.88;4.22;;;;;;;;;;4969959;28;20418;-68
2024/01/17 02:45:33;;;;;;;13.27;5.15;;;;;;;;;;4967201;28;20074;-68
2024/01/17 02:48:00;;;;;;;15.90;5.03;;;;;;;;;;4967579;28;20143;-68
2024/01/17 02:50:28;;;;;;;10.57;4.70;;;;;;;;;;4964151;28;20051;-68
2024/01/17 02:52:55;;;;;;;12.65;5.32;;;;;;;;;;4967324;28;20058;-68
2024/01/17 02:55:23;;;;;;;14.77;5.68;;;;;;;;;;4971128;28;20051;-68
2024/01/17 02:57:51;;;;;;;13.95;5.72;;;;;;;;;;4962421;28;20458;-68
2024/01/17 03:00:20;;;;;;;11.38;5.85;;;;;;;;;;4971479;28;20058;-68
2024/01/17 03:02:48;;;;;;;13.70;5.60;;;;;;;;;;4945258;28;20043;-67
2024/01/17 03:05:15;;;;;;;18.38;6.80;;;;;;;;;;4971273;28;20057;-68
2024/01/17 03:07:42;;;;;;;14.02;6.40;;;;;;;;;;4971306;28;20047;-68
2024/01/17 03:10:12;;;;;;;14.50;6.35;;;;;;;;;;4967934;28;20113;-68
2024/01/17 03:12:39;;;;;;;16.45;6.05;;;;;;;;;;4963248;28;20138;-68
2024/01/17 03:15:08;;;;;;;14.70;5.57;;;;;;;;;;4968394;28;20061;-68
2024/01/17 03:17:39;;;;;;;13.70;5.90;;;;;;;;;;4968423;28;20050;-68
2024/01/17 03:20:10;;;;;;;13.18;5.88;;;;;;;;;;4970146;28;20410;-68
2024/01/17 03:22:38;;;;;;;16.17;5.93;;;;;;;;;;4968462;28;20133;-68
2024/01/17 03:25:06;;;;;;;12.23;5.32;;;;;;;;;;4951313;28;20106;-68
2024/01/17 03:27:33;;;;;;;9.40;5.28;;;;;;;;;;4967234;28;20133;-68
2024/01/17 03:30:01;;;;;;;11.13;5.57;;;;;;;;;;4967518;28;20050;-68
2024/01/17 03:32:28;;;;;;;13.30;6.10;;;;;;;;;;4966204;28;20062;-68
2024/01/17 03:34:57;;;;;;;14.98;5.68;;;;;;;;;;4970063;28;20074;-67
2024/01/17 03:37:25;;;;;;;10.70;5.97;;;;;;;;;;4964821;28;20517;-68
2024/01/17 03:39:52;;;;;;;13.63;6.30;;;;;;;;;;4966265;28;20055;-68
2024/01/17 03:42:19;;;;;;;16.85;6.05;;;;;;;;;;4959117;28;20051;-67
2024/01/17 03:44:47;;;;;;;17.08;6.07;;;;;;;;;;4956728;28;20055;-68
2024/01/17 03:47:14;;;;;;;13.82;6.65;;;;;;;;;;4948575;28;20521;-68
2024/01/17 03:49:41;;;;;;;13.85;6.22;;;;;;;;;;4961731;28;20062;-67
2024/01/17 03:52:10;;;;;;;15.00;5.80;;;;;;;;;;4937924;29;20463;-68
2024/01/17 03:54:37;;;;;;;12.93;6.50;;;;;;;;;;4966767;28;20130;-68
2024/01/17 03:57:05;;;;;;;18.60;6.78;;;;;;;;;;4963034;28;20059;-68
2024/01/17 03:59:33;;;;;;;15.82;6.97;;;;;;;;;;4970132;28;20129;-68
2024/01/17 04:02:00;;;;;;;13.65;6.55;;;;;;;;;;4969518;28;20051;-68
2024/01/17 04:04:27;;;;;;;13.50;6.53;;;;;;;;;;4970301;28;20062;-68
2024/01/17 04:06:55;;;;;;;19.67;6.57;;;;;;;;;;4951118;28;20578;-68
2024/01/17 04:09:24;;;;;;;17.60;7.22;;;;;;;;;;4955128;28;20399;-68
2024/01/17 04:11:52;;;;;;;17.42;7.72;;;;;;;;;;4968827;28;20054;-68
2024/01/17 04:14:19;;;;;;;15.10;6.97;;;;;;;;;;4969717;28;20043;-68
2024/01/17 04:16:46;;;;;;;15.10;7.05;;;;;;;;;;4948831;28;20061;-69
2024/01/17 04:19:13;;;;;;;16.25;6.90;;;;;;;;;;4963837;28;20050;-69
2024/01/17 04:21:41;;;;;;;16.75;6.65;;;;;;;;;;4963478;28;20058;-68
2024/01/17 04:24:08;;;;;;;14.73;6.75;;;;;;;;;;4963143;28;20490;-68
2024/01/17 04:26:37;;;;;;;16.33;6.72;;;;;;;;;;4967154;28;20062;-68
2024/01/17 04:29:04;;;;;;;14.55;7.03;;;;;;;;;;4968753;28;20552;-68
2024/01/17 04:31:32;;;;;;;14.27;6.93;;;;;;;;;;4963985;28;20046;-68
2024/01/17 04:34:02;;;;;;;17.17;6.78;;;;;;;;;;4965847;28;20505;-68
2024/01/17 04:36:30;;;;;;;16.92;7.30;;;;;;;;;;4942002;28;20154;-68
2024/01/17 04:38:57;;;;;;;15.48;6.72;;;;;;;;;;4962549;28;20649;-68
2024/01/17 04:41:24;;;;;;;12.25;7.05;;;;;;;;;;4958791;28;20059;-68
2024/01/17 04:43:53;;;;;;;18.48;7.53;;;;;;;;;;4961925;28;20047;-68
2024/01/17 04:46:20;;;;;;;17.40;6.57;;;;;;;;;;4966323;28;20134;-68
2024/01/17 04:48:48;;;;;;;18.73;7.00;;;;;;;;;;4968051;28;20054;-68
2024/01/17 04:51:15;;;;;;;14.20;6.97;;;;;;;;;;4948222;28;20062;-68
2024/01/17 04:53:42;;;;;;;15.15;6.60;;;;;;;;;;4969913;28;20073;-68
2024/01/17 04:56:11;;;;;;;16.48;7.43;;;;;;;;;;4966179;28;20061;-68
2024/01/17 04:58:38;;;;;;;15.35;7.22;;;;;;;;;;4965805;28;20134;-68
2024/01/17 05:01:08;;;;;;;14.25;6.65;;;;;;;;;;4965395;28;20449;-67
2024/01/17 05:03:35;;;;;;;19.45;7.78;;;;;;;;;;4968421;28;20055;-68
2024/01/17 05:06:03;;;;;;;17.52;7.80;;;;;;;;;;4963189;28;20336;-67
2024/01/17 05:08:30;;;;;;;16.60;7.20;;;;;;;;;;4948392;28;20632;-68
2024/01/17 05:10:58;;;;;;;16.20;8.27;;;;;;;;;;4966349;28;20070;-68
2024/01/17 05:13:25;;;;;;;18.10;7.82;;;;;;;;;;4961108;28;20077;-68
2024/01/17 05:15:52;;;;;;;18.92;7.40;;;;;;;;;;4945083;28;20402;-68
2024/01/17 05:18:21;;;;;;;13.30;7.03;;;;;;;;;;4967595;28;20058;-67
2024/01/17 05:20:48;;;;;;;15.15;7.45;;;;;;;;;;4967398;28;20058;-68
2024/01/17 05:23:15;;;;;;;20.58;7.78;;;;;;;;;;4963646;28;20050;-68
2024/01/17 05:25:43;;;;;;;19.50;7.68;;;;;;;;;;4961310;28;20054;-68
2024/01/17 05:28:10;;;;;;;13.63;7.63;;;;;;;;;;4967715;28;20126;-68
2024/01/17 05:30:37;;;;;;;20.80;8.60;;;;;;;;;;4967932;28;20047;-68
2024/01/17 05:33:05;;;;;;;18.63;7.65;;;;;;;;;;4967140;28;20058;-68
2024/01/17 05:35:34;;;;;;;18.50;8.05;;;;;;;;;;4968171;28;20043;-68
2024/01/17 05:38:01;;;;;;;17.38;8.23;;;;;;;;;;4962589;28;20201;-68
2024/01/17 05:40:29;;;;;;;16.98;7.55;;;;;;;;;;4962424;28;20043;-68
2024/01/17 05:42:56;;;;;;;16.55;7.72;;;;;;;;;;4959885;28;20055;-68
2024/01/17 05:45:23;;;;;;;19.52;8.65;;;;;;;;;;4958655;28;20055;-68
2024/01/17 05:47:51;;;;;;;20.75;8.35;;;;;;;;;;4964612;28;20247;-68
2024/01/17 05:50:18;;;;;;;17.58;8.15;;;;;;;;;;4963740;28;20054;-68
2024/01/17 05:52:48;;;;;;;15.20;7.88;;;;;;;;;;4968955;28;20054;-68
2024/01/17 05:55:15;;;;;;;21.17;9.13;;;;;;;;;;4967737;28;20585;-68
2024/01/17 05:57:42;;;;;;;18.38;8.93;;;;;;;;;;4957850;28;20058;-67
2024/01/17 06:00:10;;;;;;;22.83;9.45;;;;;;;;;;4941220;28;20513;-68
2024/01/17 06:02:38;;;;;;;19.33;8.23;;;;;;;;;;4960709;28;20051;-68
2024/01/17 06:05:06;;;;;;;21.35;9.02;;;;;;;;;;4958058;28;20085;-68
2024/01/17 06:07:33;;;;;;;22.08;8.95;;;;;;;;;;4956190;28;20046;-68
2024/01/17 06:10:02;;;;;;;17.20;8.43;;;;;;;;;;4952206;28;20482;-69
2024/01/17 06:12:29;;;;;;;19.48;10.43;;;;;;;;;;4961098;28;20556;-66
2024/01/17 06:14:56;;;;;;;18.60;8.50;;;;;;;;;;4958564;28;20058;-67
2024/01/17 06:17:23;;;;;;;19.33;8.80;;;;;;;;;;4959098;28;20074;-68
2024/01/17 06:19:51;;;;;;;20.58;8.48;;;;;;;;;;4945034;28;20073;-68
2024/01/17 06:22:18;;;;;;;19.88;8.90;;;;;;;;;;4947450;29;20063;-69
2024/01/17 06:24:46;;;;;;;23.10;8.50;;;;;;;;;;4946445;28;20115;-67
2024/01/17 06:27:15;;;;;;;19.15;9.20;;;;;;;;;;4931884;29;20055;-67
2024/01/17 06:29:42;;;;;;;24.88;10.93;;;;;;;;;;4944444;28;20047;-67
2024/01/17 06:32:10;;;;;;;21.75;8.82;;;;;;;;;;4924024;29;20061;-67
2024/01/17 06:34:37;;;;;;;21.30;9.10;;;;;;;;;;4950522;28;20062;-67
2024/01/17 06:37:05;;;;;;;16.70;8.95;;;;;;;;;;4949072;28;20180;-67
2024/01/17 06:39:32;;;;;;;21.92;9.52;;;;;;;;;;4946428;28;20086;-67
2024/01/17 06:42:00;;;;;;;21.05;9.80;;;;;;;;;;4950080;28;20051;-67
2024/01/17 06:44:28;;;;;;;22.92;8.90;;;;;;;;;;4941757;28;20052;-67
2024/01/17 06:46:55;;;;;;;21.30;10.13;;;;;;;;;;4944938;28;20067;-67
2024/01/17 06:49:23;;;;;;;18.58;9.00;;;;;;;;;;4955032;28;20051;-67
2024/01/17 06:51:50;;;;;;;17.98;8.88;;;;;;;;;;4930227;29;20082;-67
2024/01/17 06:54:17;;;;;;;16.88;8.65;;;;;;;;;;4955090;28;20505;-67
2024/01/17 06:56:45;;;;;;;19.60;9.50;;;;;;;;;;4953528;28;20043;-67
2024/01/17 06:59:12;;;;;;;20.80;9.30;;;;;;;;;;4944244;28;20056;-67
2024/01/17 07:01:41;;;;;;;21.65;9.48;;;;;;;;;;4933915;28;20055;-68
2024/01/17 07:04:08;;;;;;;24.52;8.73;;;;;;;;;;4945940;28;20051;-67
2024/01/17 07:06:36;;;;;;;20.05;8.70;;;;;;;;;;4948314;28;20062;-67
2024/01/17 07:09:03;;;;;;;22.83;9.75;;;;;;;;;;4946145;28;20086;-67
2024/01/17 07:11:32;;;;;;;20.15;8.82;;;;;;;;;;4947018;28;20047;-67
2024/01/17 07:14:00;;;;;;;22.08;9.52;;;;;;;;;;4945421;28;20059;-67
2024/01/17 07:16:27;;;;;;;17.60;8.45;;;;;;;;;;4946373;28;20055;-67
2024/01/17 07:18:57;;;;;;;19.45;8.75;;;;;;;;;;4951542;28;20051;-67
2024/01/17 07:21:24;;;;;;;22.42;9.27;;;;;;;;;;4951037;28;20137;-67
2024/01/17 07:23:52;;;;;;;22.27;8.63;;;;;;;;;;4953667;28;20047;-67
2024/01/17 07:26:19;;;;;;;17.95;8.45;;;;;;;;;;4955214;28;20058;-67
2024/01/17 07:28:47;;;;;;;20.55;9.40;;;;;;;;;;4950204;28;20047;-67
2024/01/17 07:31:14;;;;;;;15.35;7.88;;;;;;;;;;4952234;28;20375;-67
2024/01/17 07:33:41;;;;;;;24.27;9.85;;;;;;;;;;4936564;29;20059;-67
2024/01/17 07:36:10;;;;;;;16.00;8.70;;;;;;;;;;4951153;28;20483;-68
2024/01/17 07:38:37;;;;;;;18.60;8.45;;;;;;;;;;4948568;28;20058;-67
2024/01/17 07:41:05;;;;;;;20.17;8.55;;;;;;;;;;4948176;28;20051;-67
2024/01/17 07:43:34;;;;;;;19.42;8.02;;;;;;;;;;4946981;28;20073;-67
2024/01/17 07:46:01;;;;;;;19.92;8.23;;;;;;;;;;4947844;28;20090;-67
2024/01/17 07:48:29;;;;;;;19.67;8.50;;;;;;;;;;4952306;28;20058;-67
2024/01/17 07:50:57;;;;;;;16.58;7.07;;;;;;;;;;4948467;29;20055;-67
2024/01/17 07:53:26;;;;;;;18.40;8.15;;;;;;;;;;4954340;28;20047;-67
2024/01/17 07:55:55;;;;;;;18.55;8.07;;;;;;;;;;4947752;28;20131;-67
2024/01/17 07:58:23;;;;;;;23.42;8.57;;;;;;;;;;4969076;28;20059;-67
2024/01/17 08:00:50;;;;;;;19.15;7.55;;;;;;;;;;4969034;28;20049;-67
2024/01/17 08:03:17;;;;;;;18.50;6.75;;;;;;;;;;4969710;28;20054;-67
2024/01/17 08:05:44;;;;;;;19.00;7.43;;;;;;;;;;4967333;28;20508;-67
2024/01/17 08:08:12;;;;;;;15.95;7.22;;;;;;;;;;4970102;28;20051;-67
2024/01/17 08:10:40;;;;;;;18.85;7.97;;;;;;;;;;4964427;28;20055;-67
2024/01/17 08:13:08;;;;;;;18.20;8.25;;;;;;;;;;4964340;28;20051;-67
2024/01/17 08:15:36;;;;;;;17.70;7.63;;;;;;;;;;4966486;28;20458;-67
2024/01/17 08:18:04;;;;;;;16.23;7.47;;;;;;;;;;4962001;28;20167;-67
2024/01/17 08:20:31;;;;;;;18.75;8.27;;;;;;;;;;4970035;28;20552;-68
2024/01/17 08:22:59;;;;;;;19.45;7.13;;;;;;;;;;4947070;28;20490;-67
2024/01/17 08:25:26;;;;;;;17.45;7.50;;;;;;;;;;4970477;28;20057;-67
2024/01/17 08:27:55;;;;;;;18.02;7.95;;;;;;;;;;4967045;28;20065;-67
2024/01/17 08:30:22;;;;;;;17.48;8.23;;;;;;;;;;4969046;28;20055;-67
2024/01/17 08:32:51;;;;;;;16.10;6.68;;;;;;;;;;4968247;28;20055;-67
2024/01/17 08:35:18;;;;;;;15.43;7.32;;;;;;;;;;4960340;28;20138;-67
2024/01/17 08:37:45;;;;;;;14.73;6.35;;;;;;;;;;4961792;28;20039;-67
2024/01/17 08:40:13;;;;;;;15.25;6.97;;;;;;;;;;4964704;28;20460;-67
2024/01/17 08:42:40;;;;;;;15.82;7.43;;;;;;;;;;4968456;28;20051;-67
2024/01/17 08:45:10;;;;;;;22.10;7.60;;;;;;;;;;4966064;28;20061;-67
2024/01/17 08:47:38;;;;;;;17.77;7.22;;;;;;;;;;4965157;28;20055;-67
2024/01/17 08:50:06;;;;;;;17.15;7.43;;;;;;;;;;4967563;28;20121;-67
2024/01/17 08:52:33;;;;;;;21.63;8.02;;;;;;;;;;4966991;28;20047;-66
2024/01/17 08:55:02;;;;;;;14.18;7.40;;;;;;;;;;4965657;28;20054;-66
2024/01/17 08:57:29;;;;;;;18.90;7.43;;;;;;;;;;4968311;28;20059;-67
2024/01/17 08:59:56;;;;;;;17.15;7.15;;;;;;;;;;4961374;28;20069;-67
2024/01/17 09:02:25;;;;;;;18.60;7.20;;;;;;;;;;4937517;28;20058;-67
2024/01/17 09:04:53;;;;;;;20.90;7.32;;;;;;;;;;4967335;28;20055;-67
2024/01/17 09:07:19;;;;;;;15.05;7.10;;;;;;;;;;4950038;28;20042;-67
2024/01/17 09:09:46;;;;;;;14.75;6.47;;;;;;;;;;4968031;28;20049;-65
2024/01/17 09:12:17;;;;;;;17.35;7.05;;;;;;;;;;4967457;28;20054;-65
2024/01/17 09:14:44;;;;;;;14.20;6.70;;;;;;;;;;4961617;28;20586;-65
2024/01/17 09:17:11;;;;;;;26.33;7.72;;;;;;;;;;4957231;28;20487;-65
2024/01/17 09:19:41;;;;;;;12.25;6.22;;;;;;;;;;4966838;28;20589;-65
2024/01/17 09:22:08;;;;;;;19.52;7.70;;;;;;;;;;4960976;28;20109;-65
2024/01/17 09:24:36;;;;;;;16.48;7.18;;;;;;;;;;4965879;28;20043;-65
2024/01/17 09:27:03;;;;;;;14.38;6.38;;;;;;;;;;4961968;28;20401;-65
2024/01/17 09:29:33;;;;;;;18.48;6.72;;;;;;;;;;4961684;28;20125;-65
2024/01/17 09:32:00;;;;;;;13.25;6.88;;;;;;;;;;4965544;28;20047;-65
2024/01/17 09:34:29;;;;;;;16.52;7.13;;;;;;;;;;4963614;28;20047;-64
2024/01/17 09:36:57;;;;;;;13.15;6.22;;;;;;;;;;4949050;28;20057;-65
2024/01/17 09:39:24;;;;;;;16.90;6.63;;;;;;;;;;4962199;28;20131;-65
2024/01/17 09:41:52;;;;;;;15.68;6.63;;;;;;;;;;4960483;28;20049;-65
2024/01/17 09:44:19;;;;;;;14.25;6.05;;;;;;;;;;4968886;28;20056;-65
2024/01/17 09:46:47;;;;;;;12.75;6.50;;;;;;;;;;4966302;28;20398;-64
2024/01/17 09:49:16;;;;;;;13.88;6.75;;;;;;;;;;4967755;28;20575;-64
2024/01/17 09:51:44;;;;;;;14.50;6.78;;;;;;;;;;4958373;28;20055;-65
2024/01/17 09:54:13;;;;;;;15.18;6.32;;;;;;;;;;4961938;28;20502;-65
2024/01/17 09:56:41;;;;;;;16.65;6.57;;;;;;;;;;4960563;28;20712;-64
2024/01/17 09:59:13;;;;;;;16.42;6.85;;;;;;;;;;4964968;28;20047;-65
2024/01/17 10:01:43;;;;;;;16.23;5.72;;;;;;;;;;4965796;28;20057;-65
2024/01/17 10:04:12;;;;;;;13.65;6.35;;;;;;;;;;4949229;28;20055;-65
2024/01/17 10:06:39;;;;;;;13.85;5.68;;;;;;;;;;4967083;28;20384;-64
2024/01/17 10:09:07;;;;;;;12.70;5.45;;;;;;;;;;4967894;28;20086;-65
2024/01/17 10:11:36;;;;;;;16.08;6.18;;;;;;;;;;4967761;28;20054;-64
2024/01/17 10:14:03;;;;;;;19.60;6.03;;;;;;;;;;4968262;28;20059;-64
2024/01/17 10:16:31;;;;;;;13.27;5.63;;;;;;;;;;4965700;28;20047;-64
2024/01/17 10:18:59;;;;;;;13.00;4.90;;;;;;;;;;4967405;28;20055;-64
2024/01/17 10:21:27;;;;;;;15.43;6.07;;;;;;;;;;4963415;28;20197;-65
2024/01/17 10:23:54;;;;;;;13.98;5.90;;;;;;;;;;4965086;28;20066;-65
2024/01/17 10:26:22;;;;;;;20.05;6.30;;;;;;;;;;4966762;28;20051;-64
2024/01/17 10:28:51;;;;;;;16.27;6.40;;;;;;;;;;4966508;28;20055;-64
2024/01/17 10:31:21;;;;;;;17.67;6.43;;;;;;;;;;4968131;28;20058;-65
2024/01/17 10:33:48;;;;;;;15.90;6.22;;;;;;;;;;4965879;28;20450;-66
2024/01/17 10:36:16;;;;;;;15.05;5.28;;;;;;;;;;4966371;28;20057;-64
2024/01/17 10:38:46;;;;;;;14.35;6.05;;;;;;;;;;4970128;28;20055;-65
2024/01/17 10:41:13;;;;;;;11.40;5.72;;;;;;;;;;4967008;28;20054;-65
2024/01/17 10:43:54;;;;;;;14.50;6.18;;;;;;;;;;4970438;28;20046;-65
2024/01/17 10:46:21;;;;;;;13.80;6.18;;;;;;;;;;4969360;28;20053;-64
2024/01/17 10:48:49;;;;;;;11.50;5.00;;;;;;;;;;4970348;28;20050;-64
2024/01/17 10:51:20;;;;;;;14.43;5.82;;;;;;;;;;4970657;28;20137;-64
2024/01/17 10:53:48;;;;;;;14.82;5.38;;;;;;;;;;4969221;28;20094;-64
2024/01/17 10:56:18;;;;;;;15.77;5.63;;;;;;;;;;4966165;28;20059;-65
2024/01/17 10:58:48;;;;;;;14.07;5.95;;;;;;;;;;4970092;28;20054;-64
2024/01/17 11:01:19;;;;;;;15.88;5.80;;;;;;;;;;4971485;28;20194;-65
2024/01/17 11:03:48;;;;;;;14.00;5.72;;;;;;;;;;4962165;28;20046;-64
2024/01/17 11:06:15;;;;;;;15.00;5.40;;;;;;;;;;4969264;28;20266;-64
2024/01/17 11:08:43;;;;;;;14.73;5.82;;;;;;;;;;4966863;28;20058;-65
2024/01/17 11:11:11;;;;;;;13.15;5.88;;;;;;;;;;4967017;28;20069;-65
2024/01/17 11:13:39;;;;;;;16.05;6.10;;;;;;;;;;4965137;28;20058;-65
2024/01/17 11:16:08;;;;;;;14.80;6.07;;;;;;;;;;4968909;28;20141;-65
2024/01/17 11:18:40;;;;;;;13.63;5.97;;;;;;;;;;4967149;28;20162;-65
2024/01/17 11:21:09;;;;;;;19.77;6.35;;;;;;;;;;4967649;28;20102;-65
2024/01/17 11:23:39;;;;;;;16.52;5.65;;;;;;;;;;4953439;28;20059;-65
2024/01/17 11:26:10;;;;;;;14.57;6.45;;;;;;;;;;4965432;28;20051;-65
2024/01/17 11:28:42;;;;;;;10.60;5.22;;;;;;;;;;4968260;28;20054;-65
2024/01/17 11:31:17;;;;;;;12.25;5.38;;;;;;;;;;4967553;28;20054;-64
2024/01/17 11:33:46;;;;;;;14.85;5.13;;;;;;;;;;4968948;28;20062;-65
2024/01/17 11:36:28;;;;;;;10.60;5.18;;;;;;;;;;4971037;28;20047;-64
2024/01/17 11:38:55;;;;;;;18.60;5.30;;;;;;;;;;4967442;28;20498;-64
2024/01/17 11:41:24;;;;;;;12.48;5.60;;;;;;;;;;4970249;28;20058;-65
2024/01/17 11:43:51;;;;;;;12.18;5.70;;;;;;;;;;4967871;28;20078;-65
2024/01/17 11:46:19;;;;;;;15.45;5.95;;;;;;;;;;4968653;28;20059;-64
2024/01/17 11:48:50;;;;;;;16.38;6.95;;;;;;;;;;4967678;28;20078;-65
2024/01/17 11:51:21;;;;;;;13.20;6.40;;;;;;;;;;4968141;28;20112;-66
2024/01/17 11:53:50;;;;;;;13.57;6.25;;;;;;;;;;4971203;28;20549;-64
2024/01/17 11:56:20;;;;;;;15.93;6.07;;;;;;;;;;4969225;28;20070;-65
2024/01/17 11:58:48;;;;;;;12.95;6.13;;;;;;;;;;4964113;28;20082;-65
2024/01/17 12:01:19;;;;;;;13.20;6.38;;;;;;;;;;4966190;28;20055;-64
2024/01/17 12:03:47;;;;;;;14.38;6.32;;;;;;;;;;4966260;28;20090;-64
2024/01/17 12:06:16;;;;;;;16.50;6.35;;;;;;;;;;4961548;28;20073;-65
2024/01/17 12:08:43;;;;;;;18.45;6.22;;;;;;;;;;4963517;28;20098;-66
2024/01/17 12:11:10;;;;;;;14.38;5.70;;;;;;;;;;4963556;28;20050;-65
2024/01/17 12:13:38;;;;;;;16.38;6.18;;;;;;;;;;4963771;28;20489;-65
2024/01/17 12:16:07;;;;;;;14.73;5.95;;;;;;;;;;4962640;28;20050;-64
2024/01/17 12:18:35;;;;;;;17.63;6.13;;;;;;;;;;4959354;28;20126;-66
2024/01/17 12:21:06;;;;;;;12.38;5.93;;;;;;;;;;4963008;28;20058;-64
2024/01/17 12:23:34;;;;;;;15.20;6.57;;;;;;;;;;4961991;28;20043;-65
2024/01/17 12:26:02;;;;;;;12.45;5.93;;;;;;;;;;4966145;28;20059;-64
2024/01/17 12:28:30;;;;;;;15.40;5.93;;;;;;;;;;4967878;28;20431;-64
2024/01/17 12:30:58;;;;;;;11.90;5.80;;;;;;;;;;4965096;28;20055;-65
2024/01/17 12:33:26;;;;;;;16.65;6.10;;;;;;;;;;4967267;28;20541;-65
2024/01/17 12:35:53;;;;;;;14.05;6.25;;;;;;;;;;4965497;28;20051;-64
2024/01/17 12:38:22;;;;;;;17.13;6.55;;;;;;;;;;4963355;28;20050;-65
2024/01/17 12:40:50;;;;;;;14.88;6.30;;;;;;;;;;4968592;28;20042;-64
2024/01/17 12:43:18;;;;;;;14.98;7.07;;;;;;;;;;4966939;28;20491;-64
2024/01/17 12:45:46;;;;;;;15.95;6.85;;;;;;;;;;4965662;28;20054;-65
2024/01/17 12:48:14;;;;;;;15.07;6.43;;;;;;;;;;4965961;28;20483;-65
2024/01/17 12:50:46;;;;;;;17.40;6.93;;;;;;;;;;4958444;28;20051;-65
2024/01/17 12:53:14;;;;;;;12.40;6.10;;;;;;;;;;4956260;28;20150;-64
2024/01/17 12:55:42;;;;;;;14.57;6.35;;;;;;;;;;4953640;28;20051;-64
2024/01/17 12:58:11;;;;;;;22.00;6.38;;;;;;;;;;4947387;28;20063;-65
2024/01/17 13:00:39;;;;;;;14.90;6.55;;;;;;;;;;4969149;28;20113;-65
2024/01/17 13:03:07;;;;;;;16.05;7.35;;;;;;;;;;4960036;28;20083;-65
2024/01/17 13:05:34;;;;;;;16.42;7.03;;;;;;;;;;4962792;28;20554;-64
2024/01/17 13:08:08;;;;;;;14.82;6.28;;;;;;;;;;4968949;28;20573;-65
2024/01/17 13:10:36;;;;;;;16.08;7.22;;;;;;;;;;4968877;28;20578;-65
2024/01/17 13:13:05;;;;;;;17.33;6.78;;;;;;;;;;4954739;28;20057;-65
2024/01/17 13:15:34;;;;;;;16.13;6.20;;;;;;;;;;4960842;28;20066;-64
2024/01/17 13:18:01;;;;;;;18.85;6.63;;;;;;;;;;4935209;28;20051;-66
2024/01/17 13:20:28;;;;;;;16.83;6.07;;;;;;;;;;4961471;28;20098;-65
2024/01/17 13:22:56;;;;;;;14.02;6.18;;;;;;;;;;4948190;28;20118;-65
2024/01/17 13:25:26;;;;;;;13.85;6.50;;;;;;;;;;4960775;28;20051;-65
2024/01/17 13:27:58;;;;;;;14.35;6.10;;;;;;;;;;4967684;28;20101;-65
2024/01/17 13:30:27;;;;;;;13.80;6.00;;;;;;;;;;4962335;28;20058;-65
2024/01/17 13:32:54;;;;;;;14.02;6.25;;;;;;;;;;4964640;28;20125;-65
2024/01/17 13:35:22;;;;;;;14.32;5.88;;;;;;;;;;4967395;28;20047;-65
2024/01/17 13:37:49;;;;;;;14.70;6.70;;;;;;;;;;4946596;28;20054;-65
2024/01/17 13:40:18;;;;;;;18.77;6.25;;;;;;;;;;4965193;28;20113;-66
2024/01/17 13:42:46;;;;;;;14.13;6.00;;;;;;;;;;4967597;28;20070;-66
2024/01/17 13:45:13;;;;;;;13.35;6.32;;;;;;;;;;4967582;28;20510;-65
2024/01/17 13:47:43;;;;;;;14.63;6.40;;;;;;;;;;4967925;28;20053;-65
2024/01/17 13:50:20;;;;;;;14.07;6.60;;;;;;;;;;4964781;28;20175;-65
2024/01/17 13:52:51;;;;;;;14.88;6.85;;;;;;;;;;4963407;28;20047;-65
2024/01/17 13:55:19;;;;;;;17.45;6.60;;;;;;;;;;4964217;28;20057;-65
2024/01/17 13:57:47;;;;;;;20.33;6.47;;;;;;;;;;4964916;28;20498;-65
2024/01/17 14:00:14;;;;;;;16.10;7.10;;;;;;;;;;4966689;28;20405;-65
2024/01/17 14:02:43;;;;;;;15.45;6.68;;;;;;;;;;4964726;28;20047;-65
2024/01/17 14:05:11;;;;;;;13.07;6.32;;;;;;;;;;4967724;28;20050;-65
2024/01/17 14:07:38;;;;;;;14.25;6.45;;;;;;;;;;4965607;28;20046;-65
2024/01/17 14:10:07;;;;;;;17.83;7.07;;;;;;;;;;4960398;28;20518;-65
2024/01/17 14:12:35;;;;;;;16.42;6.72;;;;;;;;;;4971381;28;20405;-65
2024/01/17 14:15:03;;;;;;;15.05;6.43;;;;;;;;;;4964682;28;20054;-65
2024/01/17 14:17:30;;;;;;;13.23;6.53;;;;;;;;;;4967662;28;20106;-65
2024/01/17 14:20:03;;;;;;;13.98;5.95;;;;;;;;;;4969534;28;20058;-65
2024/01/17 14:22:31;;;;;;;14.50;5.82;;;;;;;;;;4950704;28;20051;-65
2024/01/17 14:24:58;;;;;;;17.70;6.63;;;;;;;;;;4971426;28;20051;-65
2024/01/17 14:27:25;;;;;;;16.30;6.20;;;;;;;;;;4960469;28;20051;-65
2024/01/17 14:29:53;;;;;;;16.80;6.55;;;;;;;;;;4952083;28;20170;-66
2024/01/17 14:32:20;;;;;;;15.77;6.68;;;;;;;;;;4970906;28;20054;-65
2024/01/17 14:34:48;;;;;;;17.05;6.88;;;;;;;;;;4968462;28;20054;-65